Time;durP1;ratioP1;P1;durP2;ratioP2;P2;SDS_P1;SDS_P2;PMS_P1;PMS_P2;Temp;Humidity;BMP_temperature;BMP_pressure;BME280_temperature;BME280_humidity;BME280_pressure;Samples;Min_cycle;Max_cycle;Signal;HPM_P1;HPM_P2
2022/05/08 00:00:12;;;;;;;17.27;3.05;;;9.60;99.90;;;;;;5063676;28;20037;-64
2022/05/08 00:02:40;;;;;;;16.02;3.15;;;9.60;99.90;;;;;;5047294;28;20094;-63
2022/05/08 00:05:09;;;;;;;17.73;3.15;;;9.60;99.90;;;;;;5047183;28;20048;-64
2022/05/08 00:07:35;;;;;;;15.65;3.30;;;9.60;99.90;;;;;;5054641;28;20522;-64
2022/05/08 00:10:01;;;;;;;13.23;3.22;;;9.50;99.90;;;;;;5071745;28;20048;-63
2022/05/08 00:12:26;;;;;;;15.45;3.13;;;9.50;99.90;;;;;;5070364;28;20043;-64
2022/05/08 00:14:52;;;;;;;16.25;3.13;;;9.40;99.90;;;;;;5072368;28;20063;-64
2022/05/08 00:17:18;;;;;;;18.33;2.88;;;9.40;99.90;;;;;;5085477;28;20083;-64
2022/05/08 00:19:47;;;;;;;18.17;3.55;;;9.30;99.90;;;;;;5064646;28;20046;-63
2022/05/08 00:22:13;;;;;;;15.68;3.78;;;9.20;99.90;;;;;;5069305;28;20036;-63
2022/05/08 00:24:39;;;;;;;17.10;3.55;;;9.20;99.90;;;;;;5063917;28;20134;-63
2022/05/08 00:27:05;;;;;;;19.33;3.70;;;9.10;99.90;;;;;;5066459;28;20032;-64
2022/05/08 00:29:31;;;;;;;18.05;3.55;;;9.10;99.90;;;;;;5071861;28;20093;-64
2022/05/08 00:31:57;;;;;;;18.63;4.03;;;9.00;99.90;;;;;;5061231;28;20421;-64
2022/05/08 00:34:23;;;;;;;14.50;3.53;;;8.90;99.90;;;;;;5067278;28;20040;-64
2022/05/08 00:36:49;;;;;;;16.15;3.10;;;8.90;99.90;;;;;;5058359;28;20391;-64
2022/05/08 00:39:18;;;;;;;20.42;3.40;;;8.90;99.90;;;;;;5088203;28;20044;-64
2022/05/08 00:41:45;;;;;;;15.77;3.17;;;8.80;99.90;;;;;;5050362;28;20055;-64
2022/05/08 00:44:11;;;;;;;14.00;3.45;;;8.80;99.90;;;;;;5067390;28;20101;-64
2022/05/08 00:46:37;;;;;;;14.70;3.50;;;8.70;99.90;;;;;;5070565;28;20035;-63
2022/05/08 00:49:03;;;;;;;18.20;3.90;;;8.60;99.90;;;;;;5042497;28;20368;-63
2022/05/08 00:51:28;;;;;;;15.25;3.92;;;8.60;99.90;;;;;;5083875;28;20074;-64
2022/05/08 00:53:57;;;;;;;20.05;3.40;;;8.50;99.90;;;;;;5041013;28;20069;-63
2022/05/08 00:56:22;;;;;;;20.13;4.20;;;8.50;99.90;;;;;;5081289;28;20189;-63
2022/05/08 00:58:54;;;;;;;20.60;3.45;;;8.50;99.90;;;;;;5087229;28;20463;-64
2022/05/08 01:01:20;;;;;;;21.55;3.67;;;8.40;99.90;;;;;;5062636;28;20460;-63
2022/05/08 01:03:46;;;;;;;15.45;4.18;;;8.30;99.90;;;;;;5067285;28;20044;-64
2022/05/08 01:06:13;;;;;;;16.90;4.05;;;8.30;99.90;;;;;;5088547;28;20047;-64
2022/05/08 01:08:45;;;;;;;17.00;3.70;;;8.30;99.90;;;;;;5065724;28;20499;-63
2022/05/08 01:11:12;;;;;;;18.10;4.07;;;8.20;99.90;;;;;;5065862;28;20056;-64
2022/05/08 01:13:39;;;;;;;15.73;3.85;;;8.20;99.90;;;;;;5060413;28;20086;-63
2022/05/08 01:16:09;;;;;;;14.18;3.28;;;8.20;99.90;;;;;;5085369;28;20743;-64
2022/05/08 01:18:35;;;;;;;16.05;3.63;;;8.10;99.90;;;;;;5065616;28;20510;-63
2022/05/08 01:21:02;;;;;;;14.82;3.75;;;8.10;99.90;;;;;;5061091;28;20044;-63
2022/05/08 01:23:28;;;;;;;19.52;4.05;;;8.10;99.90;;;;;;5063206;28;20072;-63
2022/05/08 01:25:55;;;;;;;12.63;3.53;;;8.00;99.90;;;;;;5086253;28;20078;-63
2022/05/08 01:28:22;;;;;;;12.30;3.30;;;8.00;99.90;;;;;;5064141;28;20040;-63
2022/05/08 01:30:53;;;;;;;16.35;4.10;;;8.00;99.90;;;;;;5069272;28;20044;-64
2022/05/08 01:33:19;;;;;;;18.80;3.83;;;8.00;99.90;;;;;;5084860;28;20032;-64
2022/05/08 01:35:45;;;;;;;15.73;3.70;;;7.90;99.90;;;;;;5065834;28;20127;-63
2022/05/08 01:38:13;;;;;;;17.63;3.80;;;7.90;99.90;;;;;;5086844;28;20074;-63
2022/05/08 01:40:40;;;;;;;16.45;3.67;;;7.90;99.90;;;;;;5089071;28;20036;-63
2022/05/08 01:43:06;;;;;;;18.70;3.90;;;7.80;99.90;;;;;;5065158;28;20077;-63
2022/05/08 01:45:33;;;;;;;24.30;4.18;;;7.80;99.90;;;;;;5065597;28;20032;-63
2022/05/08 01:50:43;;;;;;;17.20;3.88;;;7.70;99.90;;;;;;5086327;28;20039;-64
2022/05/08 01:53:09;;;;;;;15.77;3.58;;;7.60;99.90;;;;;;5080852;28;20424;-63
2022/05/08 01:55:35;;;;;;;11.52;2.75;;;7.60;99.90;;;;;;5079635;28;20032;-63
2022/05/08 01:58:01;;;;;;;16.02;3.20;;;7.60;99.90;;;;;;5060535;28;20425;-63
2022/05/08 02:00:28;;;;;;;11.85;3.13;;;7.50;99.90;;;;;;5056790;28;20494;-64
2022/05/08 02:02:59;;;;;;;13.07;3.45;;;7.50;99.90;;;;;;5066357;28;20204;-63
2022/05/08 02:05:25;;;;;;;13.05;3.30;;;7.40;99.90;;;;;;5063750;28;20032;-63
2022/05/08 02:07:50;;;;;;;15.73;4.47;;;7.40;99.90;;;;;;5067563;28;20052;-63
2022/05/08 02:10:17;;;;;;;16.90;4.03;;;7.40;99.90;;;;;;5066360;28;20109;-63
2022/05/08 02:12:44;;;;;;;16.92;4.30;;;7.30;99.90;;;;;;5088449;28;20133;-63
2022/05/08 02:15:11;;;;;;;15.52;3.45;;;7.30;99.90;;;;;;5078886;28;20398;-63
2022/05/08 02:17:38;;;;;;;16.73;4.15;;;7.20;99.90;;;;;;5086170;28;20101;-64
2022/05/08 02:20:06;;;;;;;17.88;3.67;;;7.20;99.90;;;;;;5063020;28;20044;-63
2022/05/08 02:22:32;;;;;;;15.98;4.13;;;7.20;99.90;;;;;;5047396;28;20044;-63
2022/05/08 02:24:58;;;;;;;17.10;4.22;;;7.10;99.90;;;;;;5084510;28;20032;-64
2022/05/08 02:27:24;;;;;;;14.90;3.35;;;7.10;99.90;;;;;;5085701;28;20039;-63
2022/05/08 02:29:50;;;;;;;13.38;3.00;;;7.10;99.90;;;;;;5067996;28;20032;-63
2022/05/08 02:32:17;;;;;;;14.80;3.40;;;7.10;99.90;;;;;;5064071;28;20413;-63
2022/05/08 02:34:43;;;;;;;15.77;4.05;;;7.00;99.90;;;;;;5059446;28;20060;-63
2022/05/08 02:37:09;;;;;;;16.40;3.75;;;7.00;99.90;;;;;;5063214;28;20063;-63
2022/05/08 02:39:35;;;;;;;12.63;3.40;;;7.00;99.90;;;;;;5069466;28;20048;-63
2022/05/08 02:42:00;;;;;;;12.18;3.28;;;6.90;99.90;;;;;;5062595;28;20051;-63
2022/05/08 02:44:26;;;;;;;16.23;3.10;;;6.90;99.90;;;;;;5065705;28;20047;-63
2022/05/08 02:46:52;;;;;;;13.93;3.30;;;6.90;99.90;;;;;;5064932;28;20064;-63
2022/05/08 02:49:17;;;;;;;15.73;3.05;;;6.90;99.90;;;;;;5070643;28;20048;-63
2022/05/08 02:51:43;;;;;;;11.43;2.60;;;6.80;99.90;;;;;;5054329;28;20048;-63
2022/05/08 02:54:09;;;;;;;13.73;3.03;;;6.80;99.90;;;;;;5071319;28;20432;-63
2022/05/08 02:59:19;;;;;;;11.60;3.15;;;6.80;99.90;;;;;;5083213;28;20041;-63
2022/05/08 03:01:44;;;;;;;14.15;3.30;;;6.70;99.90;;;;;;5069872;28;20131;-63
2022/05/08 03:04:10;;;;;;;11.55;2.90;;;6.70;99.90;;;;;;5072913;28;20044;-64
2022/05/08 03:06:36;;;;;;;12.57;3.10;;;6.60;99.90;;;;;;5080357;28;20044;-63
2022/05/08 03:09:01;;;;;;;16.08;3.30;;;6.60;99.90;;;;;;5052328;28;20052;-63
2022/05/08 03:11:28;;;;;;;14.32;3.58;;;6.60;99.90;;;;;;5051754;28;20040;-64
2022/05/08 03:13:55;;;;;;;14.35;3.00;;;6.60;99.90;;;;;;5052143;28;20044;-63
2022/05/08 03:16:25;;;;;;;13.68;3.58;;;6.60;99.90;;;;;;5052005;28;20111;-64
2022/05/08 03:18:51;;;;;;;18.30;4.10;;;6.60;99.90;;;;;;5062415;28;20059;-63
2022/05/08 03:21:17;;;;;;;15.55;3.20;;;6.50;99.90;;;;;;5041992;28;20041;-63
2022/05/08 03:23:44;;;;;;;14.95;3.25;;;6.50;99.90;;;;;;5047048;28;20089;-63
2022/05/08 03:26:12;;;;;;;12.93;3.55;;;6.40;99.90;;;;;;5048419;28;20063;-63
2022/05/08 03:28:38;;;;;;;8.90;3.08;;;6.40;99.90;;;;;;5048240;28;20059;-63
2022/05/08 03:31:04;;;;;;;11.60;3.13;;;6.40;99.90;;;;;;5052174;28;20040;-63
2022/05/08 03:33:31;;;;;;;10.05;2.78;;;6.30;99.90;;;;;;5069456;28;20479;-63
2022/05/08 03:35:57;;;;;;;10.02;2.17;;;6.30;99.90;;;;;;5033655;28;21264;-63
2022/05/08 03:38:23;;;;;;;6.55;1.90;;;6.30;99.90;;;;;;5050768;28;20505;-63
2022/05/08 03:40:49;;;;;;;5.25;1.55;;;6.20;99.90;;;;;;5070432;28;20045;-63
2022/05/08 03:43:14;;;;;;;10.60;2.72;;;6.20;99.90;;;;;;5044984;28;20151;-63
2022/05/08 03:45:40;;;;;;;1.92;0.82;;;6.10;99.90;;;;;;5046285;28;20045;-63
2022/05/08 03:48:06;;;;;;;2.60;1.00;;;6.10;99.90;;;;;;5066079;28;20495;-63
2022/05/08 03:50:32;;;;;;;2.53;1.10;;;6.00;99.90;;;;;;5040304;28;20025;-63
2022/05/08 03:52:58;;;;;;;6.07;1.40;;;6.00;99.90;;;;;;5042692;28;20047;-64
2022/05/08 03:55:25;;;;;;;5.00;1.90;;;5.90;99.90;;;;;;5043961;28;20043;-63
2022/05/08 03:57:50;;;;;;;8.57;2.42;;;5.90;99.90;;;;;;5046131;28;20381;-63
2022/05/08 04:00:17;;;;;;;6.30;1.75;;;5.90;99.90;;;;;;5049860;28;20064;-63
2022/05/08 04:02:43;;;;;;;3.55;1.50;;;5.90;99.90;;;;;;5068922;28;20055;-63
2022/05/08 04:05:09;;;;;;;5.28;1.83;;;5.90;99.90;;;;;;5048267;28;20041;-63
2022/05/08 04:07:37;;;;;;;6.75;2.10;;;5.90;99.90;;;;;;5044261;28;21668;-63
2022/05/08 04:10:03;;;;;;;5.28;1.70;;;5.80;99.90;;;;;;5029238;28;20098;-63
2022/05/08 04:12:29;;;;;;;8.05;2.42;;;5.80;99.90;;;;;;5051962;28;20044;-63
2022/05/08 04:14:54;;;;;;;5.72;2.30;;;5.80;99.90;;;;;;5042754;28;20487;-63
2022/05/08 04:17:20;;;;;;;5.82;2.22;;;5.80;99.90;;;;;;5047646;28;20043;-63
2022/05/08 04:19:48;;;;;;;7.22;2.00;;;5.80;99.90;;;;;;5043710;28;20053;-63
2022/05/08 04:24:59;;;;;;;5.35;1.85;;;5.80;99.90;;;;;;5046082;28;20044;-63
2022/05/08 04:27:25;;;;;;;4.38;1.80;;;5.90;99.90;;;;;;5044962;28;20052;-63
2022/05/08 04:29:50;;;;;;;5.75;2.10;;;5.90;99.90;;;;;;5068120;28;20045;-63
2022/05/08 04:32:16;;;;;;;5.18;1.48;;;5.90;99.90;;;;;;5044708;28;20487;-63
2022/05/08 04:34:42;;;;;;;4.15;1.48;;;5.90;99.90;;;;;;5045380;28;20037;-63
2022/05/08 04:37:09;;;;;;;4.95;2.10;;;6.00;99.90;;;;;;5043133;28;20045;-63
2022/05/08 04:39:35;;;;;;;6.05;1.88;;;6.00;99.90;;;;;;5046618;28;20036;-63
2022/05/08 04:42:01;;;;;;;7.93;2.13;;;6.10;99.90;;;;;;5045932;28;20044;-63
2022/05/08 04:44:27;;;;;;;10.60;2.50;;;6.10;99.90;;;;;;5044727;28;20131;-63
2022/05/08 04:46:53;;;;;;;9.93;2.50;;;6.10;99.90;;;;;;5061423;28;20558;-63
2022/05/08 04:49:19;;;;;;;10.15;2.70;;;6.20;99.90;;;;;;5067649;28;20072;-64
2022/05/08 04:51:44;;;;;;;11.65;2.40;;;6.20;99.90;;;;;;5063976;28;20043;-63
2022/05/08 04:54:10;;;;;;;8.55;2.92;;;6.30;99.90;;;;;;5050750;28;20490;-63
2022/05/08 04:56:36;;;;;;;10.98;3.10;;;6.40;99.90;;;;;;5047270;28;20135;-67
2022/05/08 04:59:02;;;;;;;12.60;3.10;;;6.40;99.90;;;;;;5047557;28;20043;-66
2022/05/08 05:01:27;;;;;;;9.25;3.40;;;6.50;99.90;;;;;;5029350;28;20129;-67
2022/05/08 05:03:53;;;;;;;11.18;2.65;;;6.60;99.90;;;;;;5065136;28;20136;-65
2022/05/08 05:06:19;;;;;;;12.02;3.10;;;6.70;99.90;;;;;;5046471;28;20064;-65
2022/05/08 05:08:44;;;;;;;10.32;3.00;;;6.70;99.90;;;;;;5033057;28;20151;-65
2022/05/08 05:11:10;;;;;;;8.80;2.70;;;6.80;99.90;;;;;;5021775;28;20049;-66
2022/05/08 05:13:39;;;;;;;10.68;3.28;;;6.90;99.90;;;;;;5062322;28;20037;-65
2022/05/08 05:16:05;;;;;;;8.63;3.35;;;6.90;99.90;;;;;;5043861;28;20372;-66
2022/05/08 05:18:31;;;;;;;12.25;4.00;;;7.00;99.90;;;;;;5063753;28;20047;-68
2022/05/08 05:20:57;;;;;;;10.98;3.22;;;7.00;99.90;;;;;;5049843;28;20041;-67
2022/05/08 05:23:23;;;;;;;13.88;3.75;;;7.10;99.90;;;;;;5063622;28;20040;-68
2022/05/08 05:25:49;;;;;;;12.40;3.67;;;7.20;99.90;;;;;;5045671;28;20064;-67
2022/05/08 05:28:16;;;;;;;11.90;3.15;;;7.30;99.90;;;;;;5031597;28;20124;-67
2022/05/08 05:30:41;;;;;;;13.18;3.58;;;7.40;99.90;;;;;;5050439;28;20094;-67
2022/05/08 05:33:15;;;;;;;11.13;3.13;;;7.50;99.90;;;;;;5045978;28;20037;-66
2022/05/08 05:35:42;;;;;;;9.07;2.95;;;7.60;99.90;;;;;;5046726;28;20046;-66
2022/05/08 05:38:08;;;;;;;10.38;3.00;;;7.70;99.90;;;;;;5030078;28;20068;-67
2022/05/08 05:40:33;;;;;;;14.95;3.80;;;7.80;99.90;;;;;;5044009;28;20086;-67
2022/05/08 05:42:59;;;;;;;15.00;3.80;;;7.90;99.90;;;;;;5051079;28;20049;-67
2022/05/08 05:45:25;;;;;;;11.45;3.25;;;8.00;99.90;;;;;;5044113;28;20106;-67
2022/05/08 05:47:53;;;;;;;11.88;3.00;;;8.20;99.90;;;;;;5047329;28;20419;-67
2022/05/08 05:50:23;;;;;;;10.85;3.33;;;8.30;99.90;;;;;;5049669;28;20110;-67
2022/05/08 05:52:50;;;;;;;10.27;2.72;;;8.50;99.90;;;;;;5047100;28;20048;-66
2022/05/08 05:55:16;;;;;;;13.45;2.95;;;8.60;99.90;;;;;;5046635;28;20036;-67
2022/05/08 05:57:42;;;;;;;13.43;3.08;;;8.70;99.90;;;;;;5036626;28;20454;-68
2022/05/08 06:00:14;;;;;;;13.63;3.33;;;8.90;99.90;;;;;;5045188;28;20479;-67
2022/05/08 06:02:43;;;;;;;10.90;2.67;;;9.00;99.90;;;;;;5045138;28;20045;-67
2022/05/08 06:05:13;;;;;;;9.07;2.38;;;9.20;99.90;;;;;;5049425;28;21914;-66
2022/05/08 06:07:39;;;;;;;8.23;2.30;;;9.30;99.90;;;;;;5028395;28;20465;-65
2022/05/08 06:10:07;;;;;;;19.02;4.05;;;9.50;99.90;;;;;;5064193;28;20056;-66
2022/05/08 06:12:33;;;;;;;10.15;2.38;;;9.60;99.90;;;;;;5068514;28;20066;-67
2022/05/08 06:15:00;;;;;;;13.07;3.00;;;9.70;99.90;;;;;;5067058;28;20044;-67
2022/05/08 06:17:26;;;;;;;10.82;2.42;;;9.90;99.90;;;;;;5067554;28;20043;-67
2022/05/08 06:19:51;;;;;;;10.63;2.58;;;9.90;99.90;;;;;;5048876;28;20040;-67
2022/05/08 06:22:17;;;;;;;10.13;2.10;;;10.10;99.90;;;;;;5065339;28;20040;-66
2022/05/08 06:24:43;;;;;;;11.32;2.50;;;10.30;99.90;;;;;;5069295;28;20427;-66
2022/05/08 06:27:08;;;;;;;13.45;2.70;;;10.50;99.90;;;;;;5067485;28;20036;-67
2022/05/08 06:29:34;;;;;;;8.90;2.00;;;10.60;99.90;;;;;;5069264;28;20129;-67
2022/05/08 06:32:00;;;;;;;11.13;2.80;;;10.70;99.90;;;;;;5068203;28;20036;-67
2022/05/08 06:34:27;;;;;;;7.63;2.00;;;10.80;99.90;;;;;;5069826;28;20483;-66
2022/05/08 06:36:53;;;;;;;6.82;1.83;;;10.90;99.90;;;;;;5070841;28;20037;-67
2022/05/08 06:39:19;;;;;;;9.43;1.90;;;11.00;99.90;;;;;;5068670;28;20089;-67
2022/05/08 06:41:45;;;;;;;10.38;2.20;;;11.10;99.90;;;;;;5061470;28;20071;-66
2022/05/08 06:44:10;;;;;;;9.65;2.78;;;11.20;99.90;;;;;;5056349;28;20471;-67
2022/05/08 06:46:36;;;;;;;8.32;2.00;;;11.30;99.90;;;;;;5069855;28;20406;-67
2022/05/08 06:49:06;;;;;;;14.43;2.42;;;11.30;99.90;;;;;;5087560;28;20041;-67
2022/05/08 06:51:33;;;;;;;7.63;1.75;;;11.40;99.90;;;;;;5058186;28;20045;-66
2022/05/08 06:53:59;;;;;;;9.75;1.95;;;11.40;99.90;;;;;;5044681;28;20060;-67
2022/05/08 06:56:26;;;;;;;11.07;2.38;;;11.60;99.90;;;;;;5061774;28;20098;-67
2022/05/08 07:01:43;;;;;;;11.15;2.00;;;11.70;99.90;;;;;;5058613;28;20048;-67
2022/05/08 07:04:10;;;;;;;8.82;1.65;;;11.80;99.90;;;;;;5062691;28;21545;-67
2022/05/08 07:06:38;;;;;;;6.88;1.70;;;11.80;99.90;;;;;;5060693;28;20433;-67
2022/05/08 07:09:05;;;;;;;9.52;1.75;;;11.70;99.90;;;;;;5069598;28;20075;-67
2022/05/08 07:11:31;;;;;;;6.95;1.70;;;11.50;99.90;;;;;;5059877;28;20486;-67
2022/05/08 07:14:00;;;;;;;9.57;1.70;;;11.30;99.90;;;;;;5060319;28;20123;-67
2022/05/08 07:16:26;;;;;;;9.52;2.53;;;11.10;99.90;;;;;;5061020;28;20043;-67
2022/05/08 07:18:52;;;;;;;4.68;1.40;;;11.00;99.90;;;;;;5064868;28;20486;-67
2022/05/08 07:21:20;;;;;;;9.13;2.40;;;10.90;99.90;;;;;;5063401;28;20044;-67
2022/05/08 07:23:47;;;;;;;6.32;1.30;;;10.80;99.90;;;;;;5083771;28;20039;-67
2022/05/08 07:26:13;;;;;;;9.30;1.65;;;10.70;99.90;;;;;;5063593;28;20168;-67
2022/05/08 07:28:39;;;;;;;9.60;1.55;;;10.70;99.90;;;;;;5065535;28;20102;-67
2022/05/08 07:31:05;;;;;;;8.02;1.40;;;10.80;99.90;;;;;;5067965;28;20036;-68
2022/05/08 07:33:34;;;;;;;7.82;1.75;;;10.70;99.90;;;;;;5065189;28;20821;-67
2022/05/08 07:36:13;;;;;;;10.60;1.83;;;10.90;99.90;;;;;;5062658;28;20043;-67
2022/05/08 07:38:44;;;;;;;11.02;2.00;;;11.00;99.90;;;;;;5062169;28;20519;-66
2022/05/08 07:41:19;;;;;;;8.05;1.42;;;11.10;99.90;;;;;;5062053;28;20048;-67
2022/05/08 07:43:45;;;;;;;8.57;1.60;;;11.50;99.90;;;;;;5068457;28;20097;-67
2022/05/08 07:46:11;;;;;;;10.25;2.30;;;11.80;99.90;;;;;;5048181;28;20044;-67
2022/05/08 07:48:37;;;;;;;6.13;1.55;;;12.20;99.90;;;;;;5063770;28;20081;-68
2022/05/08 07:51:03;;;;;;;7.15;1.52;;;12.40;99.90;;;;;;5066074;28;20535;-67
2022/05/08 07:53:30;;;;;;;10.50;1.95;;;12.60;99.90;;;;;;5070491;28;20102;-68
2022/05/08 07:55:57;;;;;;;7.55;1.50;;;12.80;99.90;;;;;;5048644;28;20044;-66
2022/05/08 07:58:24;;;;;;;12.77;1.98;;;13.10;99.90;;;;;;5068573;28;20032;-68
2022/05/08 08:00:53;;;;;;;8.23;2.10;;;13.30;99.90;;;;;;5065169;28;20110;-67
2022/05/08 08:03:20;;;;;;;7.28;1.60;;;13.70;99.90;;;;;;5065269;28;20090;-66
2022/05/08 08:05:46;;;;;;;6.22;1.10;;;14.00;99.90;;;;;;5072149;28;20494;-67
2022/05/08 08:08:12;;;;;;;8.40;1.55;;;14.00;99.90;;;;;;5065567;28;20071;-65
2022/05/08 08:10:38;;;;;;;6.05;1.33;;;13.80;99.90;;;;;;5063417;28;20044;-66
2022/05/08 08:13:03;;;;;;;6.45;1.30;;;13.70;99.90;;;;;;5042390;28;20040;-66
2022/05/08 08:15:29;;;;;;;5.93;1.42;;;13.50;99.90;;;;;;5065174;28;20036;-67
2022/05/08 08:17:55;;;;;;;6.57;1.42;;;13.20;99.90;;;;;;5085875;28;20114;-66
2022/05/08 08:20:21;;;;;;;7.00;1.40;;;13.20;99.90;;;;;;5073068;28;20085;-67
2022/05/08 08:22:46;;;;;;;6.93;1.73;;;13.30;99.90;;;;;;5069763;28;20130;-68
2022/05/08 08:25:12;;;;;;;8.68;1.88;;;13.20;99.90;;;;;;5071836;28;20178;-66
2022/05/08 08:27:37;;;;;;;7.35;1.65;;;13.40;99.90;;;;;;5067674;28;20126;-67
2022/05/08 08:30:04;;;;;;;7.50;1.45;;;13.60;99.90;;;;;;5066387;28;20044;-67
2022/05/08 08:32:32;;;;;;;7.72;2.15;;;13.70;99.90;;;;;;5064796;28;20048;-67
2022/05/08 08:34:58;;;;;;;5.93;1.42;;;13.80;99.90;;;;;;5069644;28;20378;-66
2022/05/08 08:37:24;;;;;;;6.35;2.70;;;14.10;99.90;;;;;;5071002;28;20036;-67
2022/05/08 08:39:50;;;;;;;8.95;1.58;;;14.30;99.90;;;;;;5059680;28;20406;-66
2022/05/08 08:42:26;;;;;;;12.35;1.90;;;14.60;99.90;;;;;;5066840;28;20054;-67
2022/05/08 08:47:44;;;;;;;7.35;1.65;;;15.10;99.90;;;;;;5065169;28;20143;-66
2022/05/08 08:50:10;;;;;;;7.43;1.73;;;15.30;99.90;;;;;;5062636;28;20044;-66
2022/05/08 08:52:36;;;;;;;7.05;1.70;;;15.30;99.90;;;;;;5069371;28;20028;-64
2022/05/08 08:55:05;;;;;;;8.68;1.50;;;15.40;99.90;;;;;;5043775;28;20131;-66
2022/05/08 08:57:30;;;;;;;6.85;1.35;;;15.30;99.30;;;;;;5066858;28;20335;-65
2022/05/08 08:59:56;;;;;;;5.95;1.58;;;15.40;99.40;;;;;;5069891;28;20052;-69
2022/05/08 09:02:22;;;;;;;12.23;1.88;;;15.70;99.90;;;;;;5065199;28;20070;-66
2022/05/08 09:04:54;;;;;;;6.45;2.10;;;15.80;99.60;;;;;;5066490;28;20398;-66
2022/05/08 09:07:48;;;;;;;5.35;1.42;;;15.90;99.90;;;;;;5070090;28;20106;-66
2022/05/08 09:10:21;;;;;;;8.48;1.50;;;16.20;99.90;;;;;;5046202;28;20048;-65
2022/05/08 09:12:54;;;;;;;7.57;1.75;;;16.10;98.10;;;;;;5063415;28;20038;-68
2022/05/08 09:15:31;;;;;;;8.10;1.85;;;16.10;98.50;;;;;;5067245;28;20040;-67
2022/05/08 09:18:11;;;;;;;7.18;2.00;;;16.20;98.40;;;;;;5061368;28;20078;-67
2022/05/08 09:20:43;;;;;;;7.20;1.70;;;16.10;98.00;;;;;;5059161;28;20044;-68
2022/05/08 09:23:28;;;;;;;7.47;1.63;;;16.20;97.50;;;;;;5065804;28;20036;-66
2022/05/08 09:26:02;;;;;;;3.30;1.17;;;16.20;97.70;;;;;;5068699;28;20084;-67
2022/05/08 09:28:34;;;;;;;7.75;1.52;;;16.50;98.60;;;;;;5067442;28;20150;-67
2022/05/08 09:31:13;;;;;;;7.85;1.95;;;16.70;98.60;;;;;;5064206;28;20048;-67
2022/05/08 09:33:41;;;;;;;9.23;1.73;;;17.00;98.20;;;;;;5060589;28;20028;-69
2022/05/08 09:36:27;;;;;;;8.00;1.80;;;17.20;97.40;;;;;;5068534;28;20097;-67
2022/05/08 09:38:55;;;;;;;7.20;1.50;;;17.20;97.30;;;;;;5047391;28;20900;-67
2022/05/08 09:41:28;;;;;;;6.78;1.63;;;17.30;96.70;;;;;;5057890;28;20294;-67
2022/05/08 09:43:55;;;;;;;13.18;1.55;;;17.30;96.10;;;;;;5087171;28;20094;-67
2022/05/08 09:46:22;;;;;;;7.22;1.40;;;17.20;96.80;;;;;;5049900;28;20050;-68
2022/05/08 09:48:48;;;;;;;4.90;1.58;;;17.10;96.20;;;;;;5058779;28;20072;-69
2022/05/08 09:51:15;;;;;;;6.85;1.65;;;17.20;96.60;;;;;;5066927;28;20054;-67
2022/05/08 09:53:43;;;;;;;7.03;1.65;;;17.50;96.50;;;;;;5065010;28;20127;-67
2022/05/08 09:56:10;;;;;;;6.38;1.50;;;17.30;96.20;;;;;;5059735;28;20440;-67
2022/05/08 09:58:38;;;;;;;5.68;2.10;;;17.60;96.30;;;;;;5067175;28;20085;-67
2022/05/08 10:01:05;;;;;;;6.78;1.63;;;17.50;96.00;;;;;;5064176;28;20466;-67
2022/05/08 10:03:31;;;;;;;8.45;1.95;;;17.50;96.20;;;;;;5082480;28;20032;-67
2022/05/08 10:05:59;;;;;;;5.95;1.80;;;17.60;95.90;;;;;;5064871;28;20036;-67
2022/05/08 10:08:37;;;;;;;7.05;1.52;;;17.70;95.80;;;;;;5060510;28;20063;-67
2022/05/08 10:13:54;;;;;;;7.18;2.08;;;18.00;94.80;;;;;;5035472;28;20048;-68
2022/05/08 10:16:45;;;;;;;8.52;1.50;;;18.30;95.00;;;;;;5036732;28;20094;-67
2022/05/08 10:19:21;;;;;;;9.93;1.92;;;18.40;94.90;;;;;;5048890;28;20053;-68
2022/05/08 10:21:56;;;;;;;8.15;1.85;;;18.60;94.40;;;;;;5046190;28;20055;-68
2022/05/08 10:24:34;;;;;;;5.00;1.70;;;18.80;95.00;;;;;;5039593;28;20048;-68
2022/05/08 10:27:28;;;;;;;7.38;1.67;;;19.10;95.00;;;;;;5038857;28;20406;-68
2022/05/08 10:29:54;;;;;;;7.55;2.17;;;19.10;92.70;;;;;;5037138;28;20064;-65
2022/05/08 10:32:35;;;;;;;8.00;1.58;;;19.40;94.40;;;;;;5045528;28;20410;-69
2022/05/08 10:35:21;;;;;;;8.52;2.17;;;19.60;93.10;;;;;;5041015;28;20037;-67
2022/05/08 10:37:59;;;;;;;7.35;1.60;;;19.40;92.30;;;;;;5042196;28;20068;-67
2022/05/08 10:40:25;;;;;;;5.97;1.80;;;19.40;93.00;;;;;;5048445;28;20052;-68
2022/05/08 10:42:55;;;;;;;5.63;1.58;;;19.20;92.20;;;;;;5039754;28;20044;-67
2022/05/08 10:45:33;;;;;;;6.35;1.92;;;18.80;90.70;;;;;;5049763;28;20044;-67
2022/05/08 10:47:59;;;;;;;6.07;1.38;;;18.90;89.30;;;;;;5039007;28;20041;-67
2022/05/08 10:50:25;;;;;;;6.32;1.73;;;19.30;92.40;;;;;;5038975;28;20044;-67
2022/05/08 10:52:51;;;;;;;6.93;1.45;;;19.50;92.20;;;;;;5035652;28;20040;-66
2022/05/08 10:55:18;;;;;;;4.35;1.42;;;19.60;92.10;;;;;;5056112;28;20040;-70
2022/05/08 10:57:49;;;;;;;6.70;1.42;;;19.90;92.30;;;;;;5038407;28;20044;-67
2022/05/08 11:00:20;;;;;;;5.90;1.40;;;20.20;91.90;;;;;;5040210;28;20131;-65
2022/05/08 11:02:52;;;;;;;7.43;1.57;;;20.30;91.80;;;;;;5059695;28;20037;-67
2022/05/08 11:05:19;;;;;;;;;;;20.50;90.80;;;;;;5038155;28;20067;-68
2022/05/08 11:07:58;;;;;;;8.38;1.80;;;20.50;90.30;;;;;;5048323;28;19920;-66
2022/05/08 11:10:26;;;;;;;7.05;1.60;;;20.20;86.10;;;;;;5052761;28;20161;-68
2022/05/08 11:12:59;;;;;;;7.32;1.55;;;20.00;88.50;;;;;;5068572;28;20070;-67
2022/05/08 11:15:45;;;;;;;7.65;1.60;;;20.10;88.70;;;;;;5035815;28;20076;-67
2022/05/08 11:18:26;;;;;;;8.77;1.80;;;20.00;87.20;;;;;;5043972;28;20056;-67
2022/05/08 11:21:03;;;;;;;8.40;1.90;;;19.90;89.30;;;;;;5046161;28;20044;-67
2022/05/08 11:23:34;;;;;;;6.38;1.30;;;19.80;88.80;;;;;;5044491;28;20037;-67
2022/05/08 11:26:07;;;;;;;5.43;1.52;;;19.70;86.90;;;;;;5052058;28;20044;-68
2022/05/08 11:28:35;;;;;;;7.47;1.80;;;19.60;87.60;;;;;;5042620;28;20033;-67
2022/05/08 11:31:12;;;;;;;5.10;1.33;;;19.40;86.40;;;;;;5047505;28;20098;-66
2022/05/08 11:36:32;;;;;;;9.68;1.73;;;19.60;86.90;;;;;;5051454;28;20133;-67
2022/05/08 11:39:00;;;;;;;7.65;1.50;;;19.70;87.60;;;;;;5039733;28;20066;-68
2022/05/08 11:41:27;;;;;;;5.50;1.40;;;19.80;86.80;;;;;;5048496;28;20069;-68
2022/05/08 11:43:58;;;;;;;4.65;1.60;;;19.60;87.30;;;;;;5070192;28;20036;-67
2022/05/08 11:46:36;;;;;;;6.55;1.70;;;19.60;85.30;;;;;;5051476;28;20046;-68
2022/05/08 11:49:15;;;;;;;5.75;1.77;;;19.30;82.90;;;;;;5054625;28;20098;-67
2022/05/08 11:51:45;;;;;;;10.20;2.05;;;19.40;86.80;;;;;;5047401;28;20041;-69
2022/05/08 11:54:35;;;;;;;8.18;1.70;;;19.40;86.90;;;;;;5047060;28;20387;-69
2022/05/08 11:57:16;;;;;;;10.40;1.65;;;19.40;86.50;;;;;;5036938;28;20041;-69
2022/05/08 11:59:47;;;;;;;3.72;1.30;;;19.40;86.60;;;;;;5049621;28;20552;-69
2022/05/08 12:02:14;;;;;;;8.48;1.40;;;19.40;85.50;;;;;;5046256;28;20040;-67
2022/05/08 12:04:41;;;;;;;5.82;2.00;;;19.50;85.60;;;;;;5049697;28;20127;-66
2022/05/08 12:07:08;;;;;;;10.45;1.63;;;19.50;84.10;;;;;;5037977;28;20056;-66
2022/05/08 12:09:43;;;;;;;8.45;1.90;;;19.50;83.80;;;;;;5047374;28;21588;-68
2022/05/08 12:12:35;;;;;;;8.27;1.75;;;19.20;84.00;;;;;;5058699;28;20085;-66
2022/05/08 12:15:07;;;;;;;8.23;1.80;;;19.20;86.20;;;;;;5037866;28;20121;-66
2022/05/08 12:17:42;;;;;;;8.13;1.70;;;19.20;85.20;;;;;;5070765;28;20837;-66
2022/05/08 12:20:13;;;;;;;6.65;2.08;;;19.20;84.90;;;;;;5057404;28;20043;-67
2022/05/08 12:22:40;;;;;;;8.10;2.30;;;19.10;83.80;;;;;;5055690;28;20044;-66
2022/05/08 12:25:09;;;;;;;7.43;1.40;;;19.00;82.60;;;;;;5054623;28;20040;-67
2022/05/08 12:27:35;;;;;;;6.43;1.80;;;19.00;84.40;;;;;;5067120;28;20091;-67
2022/05/08 12:30:02;;;;;;;5.05;1.60;;;19.00;83.60;;;;;;5081267;28;20056;-67
2022/05/08 12:32:28;;;;;;;7.50;2.75;;;19.00;83.00;;;;;;5064685;28;20115;-66
2022/05/08 12:34:57;;;;;;;5.40;1.38;;;18.90;84.50;;;;;;5071397;28;20119;-66
2022/05/08 12:37:23;;;;;;;8.27;2.38;;;18.90;84.40;;;;;;5057505;28;20445;-67
2022/05/08 12:39:49;;;;;;;7.68;2.13;;;18.80;83.80;;;;;;5058199;28;20116;-66
2022/05/08 12:42:15;;;;;;;9.02;1.42;;;18.70;83.20;;;;;;5048185;28;20410;-66
2022/05/08 12:44:43;;;;;;;6.85;1.92;;;18.60;84.00;;;;;;5057233;28;20550;-67
2022/05/08 12:47:14;;;;;;;7.00;1.73;;;18.60;84.10;;;;;;5065076;28;20486;-67
2022/05/08 12:49:41;;;;;;;5.68;1.45;;;18.50;84.60;;;;;;5060883;28;20044;-67
2022/05/08 12:52:09;;;;;;;8.20;1.55;;;18.40;82.10;;;;;;5087324;28;20042;-67
2022/05/08 12:54:35;;;;;;;8.73;1.83;;;18.30;82.60;;;;;;5083573;28;20819;-67
2022/05/08 12:57:04;;;;;;;10.00;1.65;;;18.30;82.70;;;;;;5067770;28;20043;-66
2022/05/08 12:59:48;;;;;;;6.38;1.83;;;18.40;83.20;;;;;;5069738;28;20063;-67
2022/05/08 13:02:15;;;;;;;9.35;1.75;;;18.30;83.70;;;;;;5066730;28;20136;-67
2022/05/08 13:04:43;;;;;;;8.43;2.00;;;18.40;83.80;;;;;;5057512;28;20544;-67
2022/05/08 13:07:08;;;;;;;5.55;1.60;;;18.30;83.30;;;;;;5055841;28;20490;-66
2022/05/08 13:09:35;;;;;;;8.90;1.80;;;18.20;81.50;;;;;;5065329;28;20087;-66
2022/05/08 13:12:03;;;;;;;7.82;1.80;;;18.00;79.30;;;;;;5066840;28;20111;-67